createdAt,value
2023-01-26T00:01:29.215Z,19.58
2023-01-26T00:03:57.989Z,18.42
2023-01-26T00:06:27.696Z,17.95
2023-01-26T00:08:57.258Z,17.83
2023-01-26T00:11:29.078Z,18.35
2023-01-26T00:13:58.251Z,18.88
2023-01-26T00:16:26.905Z,18.42
2023-01-26T00:18:54.966Z,17.98
2023-01-26T00:21:24.385Z,18.15
2023-01-26T00:23:53.563Z,16.85
2023-01-26T00:26:22.744Z,16.15
2023-01-26T00:28:52.366Z,17.08
2023-01-26T00:31:22.999Z,16.42
2023-01-26T00:33:51.370Z,17.25
2023-01-26T00:36:19.548Z,17.25
2023-01-26T00:38:48.168Z,17.27
2023-01-26T00:41:29.875Z,16.58
2023-01-26T00:43:59.151Z,17.40
2023-01-26T00:46:27.091Z,18.30
2023-01-26T00:48:54.942Z,19.23
2023-01-26T00:51:22.779Z,18.55
2023-01-26T00:53:50.692Z,18.58
2023-01-26T00:56:20.007Z,18.23
2023-01-26T00:58:47.939Z,16.38
2023-01-26T01:01:17.133Z,18.02
2023-01-26T01:03:45.111Z,16.48
2023-01-26T01:06:13.022Z,18.05
2023-01-26T01:08:40.856Z,17.73
2023-01-26T01:11:10.554Z,16.75
2023-01-26T01:13:38.929Z,17.92
2023-01-26T01:16:08.430Z,18.38
2023-01-26T01:18:38.230Z,19.35
2023-01-26T01:21:07.945Z,18.80
2023-01-26T01:23:35.949Z,18.00
2023-01-26T01:26:04.868Z,18.60
2023-01-26T01:28:33.266Z,17.92
2023-01-26T01:31:01.406Z,20.17
2023-01-26T01:33:29.254Z,18.75
2023-01-26T01:36:00.166Z,18.88
2023-01-26T01:38:28.750Z,17.80
2023-01-26T01:40:57.488Z,17.90
2023-01-26T01:43:26.427Z,18.20
2023-01-26T01:45:54.961Z,18.92
2023-01-26T01:48:29.562Z,17.80
2023-01-26T01:51:04.157Z,17.73
2023-01-26T01:53:36.362Z,18.45
2023-01-26T01:56:09.367Z,18.33
2023-01-26T01:58:40.071Z,17.58
2023-01-26T02:01:08.416Z,17.90
2023-01-26T02:03:38.095Z,17.85
2023-01-26T02:06:14.756Z,17.55
2023-01-26T02:08:46.651Z,19.45
2023-01-26T02:11:19.938Z,19.23
2023-01-26T02:13:50.229Z,18.13
2023-01-26T02:16:18.705Z,19.40
2023-01-26T02:18:47.283Z,19.58
2023-01-26T02:21:19.280Z,18.90
2023-01-26T02:23:57.492Z,18.50
2023-01-26T02:26:28.665Z,18.13
2023-01-26T02:28:56.865Z,16.80
2023-01-26T02:31:25.299Z,17.73
2023-01-26T02:33:54.194Z,18.63
2023-01-26T02:36:23.855Z,18.55
2023-01-26T02:39:05.302Z,17.58
2023-01-26T02:41:52.650Z,17.52
2023-01-26T02:44:21.293Z,16.65
2023-01-26T02:46:49.097Z,17.63
2023-01-26T02:49:35.798Z,16.95
2023-01-26T02:52:05.231Z,16.88
2023-01-26T02:54:52.107Z,16.27
2023-01-26T02:57:21.392Z,16.63
2023-01-26T02:59:49.314Z,18.08
2023-01-26T03:02:17.237Z,16.05
2023-01-26T03:04:47.868Z,16.48
2023-01-26T03:07:16.043Z,16.08
2023-01-26T03:09:43.991Z,17.25
2023-01-26T03:12:13.028Z,18.92
2023-01-26T03:14:42.646Z,16.98
2023-01-26T03:17:10.494Z,16.48
2023-01-26T03:19:55.800Z,17.25
2023-01-26T03:22:41.041Z,16.65
2023-01-26T03:25:42.557Z,16.20
2023-01-26T03:28:13.823Z,15.38
2023-01-26T03:30:43.103Z,15.40
2023-01-26T03:33:11.296Z,17.42
2023-01-26T03:35:39.269Z,16.92
2023-01-26T03:38:07.038Z,17.42
2023-01-26T03:41:01.837Z,16.35
2023-01-26T03:43:47.410Z,15.95
2023-01-26T03:46:33.953Z,14.77
2023-01-26T03:49:19.348Z,16.33
2023-01-26T03:52:08.485Z,15.88
2023-01-26T03:54:53.657Z,15.10
2023-01-26T03:57:21.493Z,15.88
2023-01-26T03:59:50.093Z,16.10
2023-01-26T04:02:40.379Z,15.82
2023-01-26T04:05:27.868Z,16.13
2023-01-26T04:08:20.983Z,15.88
2023-01-26T04:10:51.114Z,15.88
2023-01-26T04:13:36.929Z,16.45
2023-01-26T04:16:27.085Z,16.00
2023-01-26T04:19:14.595Z,15.50
2023-01-26T04:21:42.565Z,15.38
2023-01-26T04:24:22.596Z,15.32
2023-01-26T04:26:54.752Z,15.40
2023-01-26T04:29:29.584Z,16.80
2023-01-26T04:31:57.666Z,16.45
2023-01-26T04:34:27.784Z,15.63
2023-01-26T04:36:55.773Z,16.90
2023-01-26T04:39:26.632Z,15.52
2023-01-26T04:41:57.167Z,16.38
2023-01-26T04:44:24.989Z,15.15
2023-01-26T04:46:53.124Z,14.60
2023-01-26T04:49:21.209Z,14.82
2023-01-26T04:51:50.564Z,13.95
2023-01-26T04:54:18.466Z,15.75
2023-01-26T04:56:46.878Z,15.75
2023-01-26T04:59:15.488Z,14.60
2023-01-26T05:01:44.397Z,15.57
2023-01-26T05:04:13.813Z,14.65
2023-01-26T05:06:45.025Z,13.48
2023-01-26T05:09:14.301Z,14.93
2023-01-26T05:11:44.340Z,14.93
2023-01-26T05:14:12.087Z,14.52
2023-01-26T05:17:12.532Z,14.57
2023-01-26T05:19:49.503Z,14.90
2023-01-26T05:22:35.795Z,13.35
2023-01-26T05:25:23.220Z,14.48
2023-01-26T05:28:04.851Z,14.32
2023-01-26T05:30:32.881Z,14.43
2023-01-26T05:33:03.346Z,15.45
2023-01-26T05:35:31.265Z,15.55
2023-01-26T05:37:59.886Z,16.08
2023-01-26T05:40:31.287Z,15.43
2023-01-26T05:42:59.234Z,15.95
2023-01-26T05:45:45.552Z,15.27
2023-01-26T05:48:15.283Z,15.65
2023-01-26T05:50:43.198Z,14.52
2023-01-26T05:53:20.082Z,13.80
2023-01-26T05:55:50.168Z,14.02
2023-01-26T05:58:21.678Z,13.50
2023-01-26T06:00:49.898Z,12.60
2023-01-26T06:03:24.581Z,15.00
2023-01-26T06:05:56.057Z,14.43
2023-01-26T06:08:33.100Z,14.38
2023-01-26T06:11:37.788Z,13.65
2023-01-26T06:14:28.496Z,13.43
2023-01-26T06:16:56.827Z,13.82
2023-01-26T06:19:25.310Z,12.68
2023-01-26T06:21:58.193Z,13.30
2023-01-26T06:24:26.184Z,13.32
2023-01-26T06:26:55.611Z,12.52
2023-01-26T06:29:23.528Z,13.98
2023-01-26T06:31:51.551Z,13.32
2023-01-26T06:34:19.942Z,13.55
2023-01-26T06:36:47.897Z,12.15
2023-01-26T06:39:23.852Z,12.23
2023-01-26T06:41:51.780Z,12.57
2023-01-26T06:44:21.077Z,12.10
2023-01-26T06:46:49.941Z,11.98
2023-01-26T06:49:17.753Z,11.90
2023-01-26T06:51:53.377Z,12.43
2023-01-26T06:54:21.987Z,11.07
2023-01-26T06:57:18.976Z,12.60
2023-01-26T07:00:06.979Z,11.35
2023-01-26T07:02:53.509Z,11.48
2023-01-26T07:05:21.386Z,12.15
2023-01-26T07:07:49.164Z,12.20
2023-01-26T07:10:17.121Z,12.45
2023-01-26T07:12:46.873Z,12.35
2023-01-26T07:15:16.159Z,12.88
2023-01-26T07:17:44.023Z,11.88
2023-01-26T07:20:12.959Z,11.93
2023-01-26T07:22:40.917Z,12.40
2023-01-26T07:25:09.196Z,11.85
2023-01-26T07:27:37.071Z,12.82
2023-01-26T07:30:05.500Z,12.05
2023-01-26T07:32:34.653Z,12.60
2023-01-26T07:35:02.488Z,11.82
2023-01-26T07:37:30.701Z,12.25
2023-01-26T07:39:58.440Z,12.48
2023-01-26T07:42:26.205Z,12.38
2023-01-26T07:45:06.930Z,12.32
2023-01-26T07:47:37.568Z,12.02
2023-01-26T07:50:07.227Z,11.77
2023-01-26T07:52:35.012Z,12.70
2023-01-26T07:55:02.897Z,12.73
2023-01-26T07:57:30.728Z,11.93
2023-01-26T07:59:58.681Z,13.70
2023-01-26T08:02:26.499Z,12.65
2023-01-26T08:04:55.726Z,12.18
2023-01-26T08:07:23.500Z,12.07
2023-01-26T08:09:51.321Z,12.70
2023-01-26T08:12:19.226Z,13.63
2023-01-26T08:14:47.429Z,11.95
2023-01-26T08:17:17.368Z,12.13
2023-01-26T08:19:45.527Z,11.63
2023-01-26T08:22:14.840Z,13.25
2023-01-26T08:24:42.792Z,12.13
2023-01-26T08:27:10.880Z,13.88
2023-01-26T08:29:38.831Z,12.45
2023-01-26T08:32:08.310Z,12.30
2023-01-26T08:34:36.570Z,13.45
2023-01-26T08:37:04.617Z,12.60
2023-01-26T08:39:34.007Z,12.23
2023-01-26T08:42:01.877Z,11.63
2023-01-26T08:44:29.664Z,11.70
2023-01-26T08:46:57.429Z,11.50
2023-01-26T08:49:25.344Z,11.60
2023-01-26T08:51:53.283Z,11.15
2023-01-26T08:54:21.079Z,11.43
2023-01-26T08:56:50.224Z,11.13
2023-01-26T08:59:17.995Z,11.18
2023-01-26T09:01:45.862Z,11.43
2023-01-26T09:04:13.736Z,11.57
2023-01-26T09:06:41.574Z,11.90
2023-01-26T09:09:13.156Z,10.52
2023-01-26T09:11:41.106Z,11.52
2023-01-26T09:14:10.306Z,11.45
2023-01-26T09:16:38.201Z,11.18
2023-01-26T09:19:06.035Z,11.27
2023-01-26T09:21:34.129Z,11.85
2023-01-26T09:24:02.562Z,11.00
2023-01-26T09:26:31.259Z,11.35
2023-01-26T09:28:59.295Z,10.80
2023-01-26T09:31:28.755Z,10.63
2023-01-26T09:33:56.562Z,10.82
2023-01-26T09:36:24.413Z,10.95
2023-01-26T09:38:54.241Z,11.18
2023-01-26T09:41:44.375Z,11.93
2023-01-26T09:44:19.726Z,10.77
2023-01-26T09:47:02.673Z,11.60
2023-01-26T09:49:38.192Z,11.82
2023-01-26T09:52:11.403Z,10.90
2023-01-26T09:54:42.838Z,11.18
2023-01-26T09:57:17.648Z,11.98
2023-01-26T09:59:49.962Z,11.10
2023-01-26T10:02:30.547Z,10.55
2023-01-26T10:05:02.546Z,11.32
2023-01-26T10:07:30.457Z,11.10
2023-01-26T10:09:58.427Z,11.10
2023-01-26T10:12:31.708Z,12.30
2023-01-26T10:15:03.930Z,11.98
2023-01-26T10:17:36.797Z,11.53
2023-01-26T10:22:44.437Z,9.40
2023-01-26T10:25:18.407Z,11.25
2023-01-26T10:27:46.956Z,10.38
2023-01-26T10:30:16.583Z,10.48
2023-01-26T10:32:48.024Z,10.48
2023-01-26T10:35:19.857Z,11.30
2023-01-26T10:37:48.302Z,11.00
2023-01-26T10:40:17.398Z,10.50
2023-01-26T10:42:56.240Z,10.85
2023-01-26T10:45:30.493Z,10.93
2023-01-26T10:48:17.636Z,10.55
2023-01-26T10:50:45.801Z,10.43
2023-01-26T10:53:19.095Z,10.45
2023-01-26T10:56:00.053Z,10.13
2023-01-26T10:58:44.998Z,11.10
2023-01-26T11:01:15.634Z,10.60
2023-01-26T11:04:01.451Z,11.80
2023-01-26T11:06:30.518Z,10.43
2023-01-26T11:09:11.313Z,10.77
2023-01-26T11:11:42.906Z,10.65
2023-01-26T11:14:12.788Z,10.77
2023-01-26T11:16:42.939Z,10.30
2023-01-26T11:19:15.181Z,10.95
2023-01-26T11:21:47.532Z,9.40
2023-01-26T11:24:21.487Z,9.38
2023-01-26T11:27:13.807Z,8.98
2023-01-26T11:29:54.331Z,8.90
2023-01-26T11:32:31.373Z,9.65
2023-01-26T11:35:14.186Z,8.48
2023-01-26T11:37:46.256Z,9.07
2023-01-26T11:40:38.182Z,9.23
2023-01-26T11:43:35.754Z,9.30
2023-01-26T11:46:26.945Z,8.98
2023-01-26T11:49:09.751Z,7.90
2023-01-26T11:51:48.791Z,8.93
2023-01-26T11:54:31.220Z,8.15
2023-01-26T11:57:09.414Z,8.13
2023-01-26T11:59:42.959Z,9.02
2023-01-26T12:02:27.707Z,8.68
2023-01-26T12:04:58.766Z,8.73
2023-01-26T12:07:31.285Z,8.63
2023-01-26T12:10:01.541Z,8.40
2023-01-26T12:12:38.358Z,7.88
2023-01-26T12:15:14.381Z,7.88
2023-01-26T12:17:52.454Z,7.03
2023-01-26T12:20:28.458Z,6.45
2023-01-26T12:23:04.828Z,6.78
2023-01-26T12:25:36.007Z,6.40
2023-01-26T12:28:17.942Z,6.53
2023-01-26T12:30:53.393Z,6.38
2023-01-26T12:33:21.498Z,6.75
2023-01-26T12:36:05.994Z,6.68
2023-01-26T12:38:44.670Z,7.05
2023-01-26T12:41:19.987Z,6.05
2023-01-26T12:43:58.260Z,6.20
2023-01-26T12:46:32.501Z,7.22
2023-01-26T12:49:05.521Z,7.40
2023-01-26T12:54:11.991Z,6.47
2023-01-26T12:56:45.925Z,6.97
2023-01-26T12:59:38.898Z,7.22
2023-01-26T13:02:20.419Z,6.60
2023-01-26T13:04:49.281Z,7.85
2023-01-26T13:07:36.539Z,7.30
2023-01-26T13:10:30.784Z,7.07
2023-01-26T13:13:00.844Z,6.97
2023-01-26T13:15:30.300Z,6.28
2023-01-26T13:18:00.447Z,6.15
2023-01-26T13:20:52.112Z,5.68
2023-01-26T13:23:53.154Z,6.80
2023-01-26T13:26:26.501Z,6.18
2023-01-26T13:29:32.674Z,6.78
2023-01-26T13:32:02.737Z,7.28
2023-01-26T13:34:36.687Z,7.15
2023-01-26T13:37:09.952Z,7.75
2023-01-26T13:39:42.449Z,7.97
2023-01-26T13:42:21.495Z,7.53
2023-01-26T13:44:57.717Z,7.57
2023-01-26T13:47:29.409Z,7.38
2023-01-26T13:49:57.224Z,7.10
2023-01-26T13:52:26.979Z,7.20
2023-01-26T13:54:57.761Z,7.15
2023-01-26T13:57:28.524Z,7.25
2023-01-26T13:59:59.081Z,7.50
2023-01-26T14:02:28.589Z,8.30
2023-01-26T14:04:58.223Z,8.55
2023-01-26T14:07:29.540Z,8.50
2023-01-26T14:10:01.675Z,8.60
2023-01-26T14:12:34.488Z,6.22
2023-01-26T14:15:05.714Z,8.35
2023-01-26T14:17:36.633Z,8.20
2023-01-26T14:20:22.125Z,8.55
2023-01-26T14:23:04.210Z,8.85
2023-01-26T14:25:32.234Z,9.43
2023-01-26T14:28:01.468Z,9.50
2023-01-26T14:30:31.729Z,8.98
2023-01-26T14:33:04.965Z,10.50
2023-01-26T14:35:33.385Z,9.93
2023-01-26T14:38:15.076Z,10.48
2023-01-26T14:40:47.196Z,11.43
2023-01-26T14:43:17.228Z,10.93
2023-01-26T14:45:50.006Z,10.88
2023-01-26T14:48:21.754Z,10.45
2023-01-26T14:50:50.092Z,10.65
2023-01-26T14:53:22.131Z,11.27
2023-01-26T14:55:51.689Z,11.02
2023-01-26T14:58:26.327Z,10.63
2023-01-26T15:00:54.893Z,10.07
2023-01-26T15:03:27.254Z,11.32
2023-01-26T15:06:07.452Z,10.05
2023-01-26T15:08:36.356Z,9.75
2023-01-26T15:11:21.751Z,11.07
2023-01-26T15:13:55.256Z,10.18
2023-01-26T15:16:25.046Z,9.82
2023-01-26T15:18:59.848Z,9.10
2023-01-26T15:21:33.906Z,9.85
2023-01-26T15:24:01.934Z,10.35
2023-01-26T15:26:32.773Z,10.60
2023-01-26T15:29:05.717Z,10.30
2023-01-26T15:34:04.086Z,10.75
2023-01-26T15:36:35.241Z,10.13
2023-01-26T15:39:12.188Z,10.55
2023-01-26T15:41:40.214Z,11.43
2023-01-26T15:44:15.885Z,11.43
2023-01-26T15:46:44.737Z,10.93
2023-01-26T15:49:12.537Z,11.25
2023-01-26T15:51:40.645Z,11.77
2023-01-26T15:54:11.157Z,9.68
2023-01-26T15:56:39.243Z,10.90
2023-01-26T15:59:07.148Z,11.02
2023-01-26T16:01:36.537Z,10.27
2023-01-26T16:04:04.299Z,10.57
2023-01-26T16:06:33.817Z,10.77
2023-01-26T16:09:01.639Z,11.13
2023-01-26T16:11:32.488Z,11.73
2023-01-26T16:14:04.102Z,11.70
2023-01-26T16:16:33.518Z,11.30
2023-01-26T16:19:02.827Z,12.23
2023-01-26T16:21:34.991Z,12.15
2023-01-26T16:24:03.633Z,11.37
2023-01-26T16:26:32.522Z,11.63
2023-01-26T16:29:00.407Z,11.05
2023-01-26T16:31:30.464Z,11.38
2023-01-26T16:33:59.019Z,11.98
2023-01-26T16:36:28.608Z,11.95
2023-01-26T16:38:56.567Z,10.85
2023-01-26T16:41:27.606Z,12.30
2023-01-26T16:43:56.666Z,10.57
2023-01-26T16:46:24.885Z,10.35
2023-01-26T16:48:53.144Z,10.30
2023-01-26T16:51:24.967Z,10.52
2023-01-26T16:53:55.378Z,10.45
2023-01-26T16:56:24.615Z,10.45
2023-01-26T16:58:52.763Z,10.70
2023-01-26T17:01:23.084Z,10.30
2023-01-26T17:03:52.055Z,10.73
2023-01-26T17:06:20.727Z,10.40
2023-01-26T17:08:49.274Z,11.32
2023-01-26T17:11:25.519Z,10.93
2023-01-26T17:13:55.908Z,10.93
2023-01-26T17:16:25.335Z,10.55
2023-01-26T17:18:53.402Z,10.40
2023-01-26T17:21:21.820Z,10.60
2023-01-26T17:23:50.903Z,10.57
2023-01-26T17:26:21.558Z,10.63
2023-01-26T17:28:50.902Z,10.27
2023-01-26T17:31:20.334Z,10.52
2023-01-26T17:33:50.049Z,10.57
2023-01-26T17:36:19.540Z,10.45
2023-01-26T17:38:48.020Z,11.68
2023-01-26T17:41:15.863Z,10.48
2023-01-26T17:43:45.106Z,11.27
2023-01-26T17:46:15.049Z,10.40
2023-01-26T17:48:45.268Z,10.23
2023-01-26T17:51:16.550Z,10.65
2023-01-26T17:53:46.365Z,10.48
2023-01-26T17:56:16.689Z,10.07
2023-01-26T17:58:48.970Z,10.80
2023-01-26T18:01:17.036Z,12.45
2023-01-26T18:03:45.075Z,12.15
2023-01-26T18:06:13.115Z,12.35
2023-01-26T18:08:41.328Z,12.25
2023-01-26T18:11:12.308Z,12.27
2023-01-26T18:13:40.540Z,11.15
2023-01-26T18:16:13.090Z,11.85
2023-01-26T18:18:41.010Z,12.43
2023-01-26T18:21:13.877Z,12.50
2023-01-26T18:23:44.924Z,11.10
2023-01-26T18:26:13.221Z,14.07
2023-01-26T18:28:41.962Z,12.40
2023-01-26T18:31:13.291Z,12.73
2023-01-26T18:33:41.269Z,12.65
2023-01-26T18:36:11.991Z,13.35
2023-01-26T18:38:40.096Z,12.35
2023-01-26T18:41:12.005Z,13.80
2023-01-26T18:43:40.298Z,13.25
2023-01-26T18:46:08.929Z,12.02
2023-01-26T18:48:38.438Z,12.45
2023-01-26T18:51:08.609Z,13.63
2023-01-26T18:53:38.504Z,13.68
2023-01-26T18:56:08.090Z,14.15
2023-01-26T18:58:37.872Z,13.57
2023-01-26T19:01:09.753Z,14.70
2023-01-26T19:03:41.639Z,13.80
2023-01-26T19:06:10.331Z,15.57
2023-01-26T19:08:38.818Z,16.10
2023-01-26T19:11:07.952Z,15.40
2023-01-26T19:13:36.373Z,14.60
2023-01-26T19:16:05.861Z,13.20
2023-01-26T19:18:35.336Z,13.60
2023-01-26T19:21:05.735Z,12.55
2023-01-26T19:23:34.099Z,13.13
2023-01-26T19:26:01.970Z,13.18
2023-01-26T19:28:29.843Z,11.55
2023-01-26T19:31:04.262Z,12.73
2023-01-26T19:33:32.150Z,12.88
2023-01-26T19:36:02.710Z,12.65
2023-01-26T19:38:33.122Z,11.63
2023-01-26T19:41:02.184Z,11.32
2023-01-26T19:43:30.268Z,12.73
2023-01-26T19:45:58.206Z,12.85
2023-01-26T19:48:27.967Z,12.40
2023-01-26T19:51:00.837Z,12.25
2023-01-26T19:53:29.039Z,12.10
2023-01-26T19:55:59.778Z,11.95
2023-01-26T19:58:28.260Z,11.25
2023-01-26T20:01:00.406Z,12.05
2023-01-26T20:03:28.295Z,10.52
2023-01-26T20:05:56.105Z,12.48
2023-01-26T20:08:24.063Z,13.43
2023-01-26T20:10:51.991Z,13.40
2023-01-26T20:13:21.462Z,13.18
2023-01-26T20:15:49.345Z,13.23
2023-01-26T20:18:17.353Z,13.73
2023-01-26T20:20:50.346Z,13.40
2023-01-26T20:23:18.892Z,13.93
2023-01-26T20:25:47.388Z,13.32
2023-01-26T20:28:16.134Z,12.65
2023-01-26T20:30:45.722Z,15.27
2023-01-26T20:33:13.782Z,14.85
2023-01-26T20:35:43.453Z,15.20
2023-01-26T20:38:11.958Z,14.80
2023-01-26T20:40:40.103Z,15.30
2023-01-26T20:43:07.972Z,14.07
2023-01-26T20:45:35.780Z,14.07
2023-01-26T20:48:05.305Z,14.30
2023-01-26T20:50:40.009Z,13.65
2023-01-26T20:53:08.340Z,12.77
2023-01-26T20:55:36.634Z,13.43
2023-01-26T20:58:06.809Z,13.77
2023-01-26T21:00:36.078Z,13.63
2023-01-26T21:03:05.642Z,12.55
2023-01-26T21:05:33.550Z,12.70
2023-01-26T21:08:01.389Z,12.65
2023-01-26T21:10:29.214Z,13.30
2023-01-26T21:12:57.083Z,12.93
2023-01-26T21:15:25.027Z,12.38
2023-01-26T21:17:52.850Z,11.68
2023-01-26T21:20:22.075Z,11.13
2023-01-26T21:22:50.034Z,10.25
2023-01-26T21:25:18.167Z,10.45
2023-01-26T21:27:45.929Z,9.95
2023-01-26T21:30:14.595Z,10.00
2023-01-26T21:32:42.623Z,9.75
2023-01-26T21:35:11.127Z,8.55
2023-01-26T21:37:40.334Z,9.32
2023-01-26T21:40:09.771Z,9.27
2023-01-26T21:42:37.881Z,8.68
2023-01-26T21:45:24.074Z,8.30
2023-01-26T21:48:12.016Z,7.75
2023-01-26T21:51:12.809Z,7.55
2023-01-26T21:53:42.113Z,7.28
2023-01-26T21:56:10.130Z,6.85
2023-01-26T21:58:57.790Z,6.90
2023-01-26T22:01:26.156Z,6.93
2023-01-26T22:03:56.407Z,6.60
2023-01-26T22:06:24.569Z,6.30
2023-01-26T22:08:53.892Z,5.82
2023-01-26T22:11:22.674Z,5.75
2023-01-26T22:13:50.527Z,5.35
2023-01-26T22:16:18.891Z,4.72
2023-01-26T22:18:46.893Z,5.20
2023-01-26T22:21:14.797Z,4.55
2023-01-26T22:23:43.209Z,5.07
2023-01-26T22:26:14.542Z,3.92
2023-01-26T22:28:44.241Z,4.32
2023-01-26T22:31:12.237Z,3.80
2023-01-26T22:33:40.211Z,4.00
2023-01-26T22:36:10.130Z,3.83
2023-01-26T22:38:38.901Z,3.22
2023-01-26T22:41:07.917Z,3.30
2023-01-26T22:43:37.102Z,3.47
2023-01-26T22:46:06.378Z,3.50
2023-01-26T22:48:34.863Z,3.35
2023-01-26T22:51:07.872Z,3.22
2023-01-26T22:56:04.761Z,2.53
2023-01-26T22:58:35.211Z,3.10
2023-01-26T23:01:11.611Z,2.67
2023-01-26T23:03:40.715Z,2.70
2023-01-26T23:06:12.384Z,2.67
2023-01-26T23:08:40.892Z,2.70
2023-01-26T23:11:11.814Z,2.65
2023-01-26T23:13:42.318Z,3.10
2023-01-26T23:16:12.339Z,2.97
2023-01-26T23:18:40.217Z,2.90
2023-01-26T23:21:09.102Z,2.60
2023-01-26T23:23:37.194Z,3.20
2023-01-26T23:26:05.277Z,2.90
2023-01-26T23:28:34.650Z,2.35
2023-01-26T23:31:02.625Z,2.58
2023-01-26T23:33:33.521Z,2.70
2023-01-26T23:36:01.652Z,2.58
2023-01-26T23:38:30.910Z,2.40
2023-01-26T23:41:00.313Z,2.40
2023-01-26T23:43:28.906Z,2.72
2023-01-26T23:45:57.014Z,2.40
2023-01-26T23:48:25.799Z,2.50
2023-01-26T23:50:58.229Z,2.65
2023-01-26T23:53:26.111Z,3.08
2023-01-26T23:55:54.196Z,2.28
2023-01-26T23:58:22.055Z,2.72
